Time;durP1;ratioP1;P1;durP2;ratioP2;P2;SDS_P1;SDS_P2;PMS_P1;PMS_P2;Temp;Humidity;BMP_temperature;BMP_pressure;BME280_temperature;BME280_humidity;BME280_pressure;Samples;Min_cycle;Max_cycle;Signal;HPM_P1;HPM_P2
2023/10/24 00:00:33;;;;;;;5.15;2.50;;;;;;;10.00;77.45;100703.56;2097617;28;20750;-76
2023/10/24 00:01:34;;;;;;;5.55;2.38;;;;;;;10.05;77.32;100706.22;2098536;28;20037;-74
2023/10/24 00:02:38;;;;;;;4.85;2.17;;;;;;;10.05;77.05;100707.03;2106560;28;20790;-74
2023/10/24 00:03:43;;;;;;;5.13;2.38;;;;;;;10.04;76.52;100704.63;2105921;28;20038;-74
2023/10/24 00:04:47;;;;;;;4.88;2.28;;;;;;;10.04;76.60;100710.00;2106780;28;20881;-75
2023/10/24 00:05:52;;;;;;;4.43;2.33;;;;;;;10.05;76.91;100707.03;2089999;28;20159;-75
2023/10/24 00:06:53;;;;;;;4.65;2.42;;;;;;;9.97;77.21;100697.66;2090235;28;20148;-75
2023/10/24 00:07:56;;;;;;;4.43;2.35;;;;;;;10.05;76.91;100716.97;2090008;28;20045;-75
2023/10/24 00:09:00;;;;;;;3.67;2.28;;;;;;;10.02;77.16;100704.88;2082093;28;20088;-75
2023/10/24 00:10:04;;;;;;;5.85;2.22;;;;;;;10.03;76.83;100706.50;2098756;28;20147;-75
2023/10/24 00:11:06;;;;;;;4.90;2.50;;;;;;;10.00;77.10;100703.56;2079191;28;20103;-75
2023/10/24 00:12:08;;;;;;;3.40;2.03;;;;;;;10.02;76.92;100704.09;2090089;28;20064;-74
2023/10/24 00:13:12;;;;;;;6.07;2.10;;;;;;;10.00;77.07;100704.38;2081713;28;20917;-74
2023/10/24 00:14:14;;;;;;;6.43;2.53;;;;;;;10.00;77.29;100698.19;2066831;28;20031;-75
2023/10/24 00:15:16;;;;;;;4.03;2.08;;;;;;;10.00;77.22;100703.56;2090346;28;20042;-75
2023/10/24 00:16:18;;;;;;;4.03;2.38;;;;;;;10.01;76.99;100705.16;2106798;28;20036;-74
2023/10/24 00:17:19;;;;;;;5.22;2.60;;;;;;;10.02;76.57;100709.47;2098164;28;20894;-74
2023/10/24 00:18:23;;;;;;;5.18;2.40;;;;;;;10.02;77.36;100709.47;2098330;28;20037;-74
2023/10/24 00:19:25;;;;;;;3.72;2.20;;;;;;;10.02;77.27;100712.16;2098146;28;20025;-74
2023/10/24 00:20:26;;;;;;;4.75;2.30;;;;;;;10.03;77.28;100711.09;2081697;28;20761;-74
2023/10/24 00:21:28;;;;;;;5.18;2.30;;;;;;;10.01;77.39;100703.28;2097352;28;20852;-74
2023/10/24 00:22:35;;;;;;;3.75;2.15;;;;;;;10.02;77.54;100707.56;2106607;28;20032;-74
2023/10/24 00:23:37;;;;;;;4.15;2.17;;;;;;;10.01;76.94;100711.34;2098446;28;20033;-74
2023/10/24 00:24:38;;;;;;;5.38;2.28;;;;;;;10.03;77.28;100708.41;2098354;28;20862;-74
2023/10/24 00:25:43;;;;;;;4.15;2.10;;;;;;;10.03;77.17;100711.09;2096162;28;20913;-74
2023/10/24 00:26:45;;;;;;;4.70;2.20;;;;;;;10.01;76.92;100713.22;2073595;28;20038;-74
2023/10/24 00:27:49;;;;;;;5.18;2.33;;;;;;;10.02;77.20;100707.56;2091459;28;20804;-74
2023/10/24 00:28:50;;;;;;;5.05;2.20;;;;;;;10.03;77.08;100709.19;2106338;28;20036;-74
2023/10/24 00:29:54;;;;;;;5.20;2.10;;;;;;;10.00;77.35;100703.56;2106804;28;20200;-74
2023/10/24 00:30:56;;;;;;;3.95;2.45;;;;;;;10.00;77.53;100704.38;2106062;28;20162;-74
2023/10/24 00:32:00;;;;;;;4.13;2.38;;;;;;;10.00;77.15;100703.56;2081641;28;20046;-74
2023/10/24 00:33:02;;;;;;;4.13;2.13;;;;;;;10.02;77.66;100709.47;2098250;28;20033;-74
2023/10/24 00:34:05;;;;;;;4.35;2.50;;;;;;;10.02;77.60;100704.88;2098109;28;20099;-74
2023/10/24 00:35:10;;;;;;;4.32;2.50;;;;;;;10.02;77.07;100707.56;2098554;28;20040;-75
2023/10/24 00:36:12;;;;;;;6.07;2.60;;;;;;;9.96;77.15;100700.59;2097996;28;20043;-74
2023/10/24 00:37:16;;;;;;;6.63;2.83;;;;;;;9.99;77.45;100708.13;2089980;28;20076;-74
2023/10/24 00:38:17;;;;;;;5.10;2.40;;;;;;;10.02;77.74;100704.09;2074106;28;20040;-74
2023/10/24 00:39:20;;;;;;;4.75;2.33;;;;;;;9.98;77.51;100703.81;2073442;28;20046;-74
2023/10/24 00:40:25;;;;;;;4.80;2.35;;;;;;;10.01;77.43;100699.78;2090886;28;20037;-74
2023/10/24 00:41:26;;;;;;;4.15;2.40;;;;;;;10.00;77.73;100701.69;2088760;28;20033;-74
2023/10/24 00:42:28;;;;;;;4.78;2.60;;;;;;;9.96;77.46;100703.28;2090172;28;20037;-73
2023/10/24 00:43:31;;;;;;;6.85;2.40;;;;;;;9.94;77.47;100692.81;2098518;28;20029;-74
2023/10/24 00:44:33;;;;;;;5.28;2.47;;;;;;;9.98;77.62;100707.31;2106717;28;20146;-74
2023/10/24 00:45:38;;;;;;;6.55;2.50;;;;;;;9.96;77.54;100709.47;2114134;28;20113;-74
2023/10/24 00:46:43;;;;;;;5.93;2.70;;;;;;;9.95;78.11;100702.47;2098070;28;20037;-74
2023/10/24 00:47:47;;;;;;;8.13;2.70;;;;;;;9.97;77.82;100705.72;2074206;28;20041;-74
2023/10/24 00:48:48;;;;;;;4.82;2.05;;;;;;;9.98;77.90;100706.50;2090492;28;20148;-74
2023/10/24 00:49:53;;;;;;;6.60;2.58;;;;;;;9.97;78.31;100703.03;2106206;28;20101;-74
2023/10/24 00:50:55;;;;;;;5.95;2.67;;;;;;;9.97;78.26;100699.53;2103516;28;20033;-74
2023/10/24 00:52:01;;;;;;;3.72;2.17;;;;;;;9.97;78.18;100702.22;2089406;28;20099;-74
2023/10/24 00:53:06;;;;;;;5.35;2.47;;;;;;;9.97;77.37;100689.59;2099305;28;20033;-75
2023/10/24 00:54:15;;;;;;;3.75;1.95;;;;;;;9.97;78.10;100700.34;2099144;28;20033;-75
2023/10/24 00:55:18;;;;;;;8.32;3.45;;;;;;;9.98;78.21;100701.13;2090804;28;20038;-74
2023/10/24 00:56:22;;;;;;;5.35;2.70;;;;;;;9.93;78.23;100699.28;2088821;28;20045;-74
2023/10/24 00:57:30;;;;;;;5.65;2.00;;;;;;;9.94;78.52;100692.03;2106985;28;20105;-75
2023/10/24 00:58:33;;;;;;;3.33;2.10;;;;;;;9.96;78.26;100703.28;2106375;28;20082;-75
2023/10/24 00:59:35;;;;;;;3.08;2.00;;;;;;;9.96;78.06;100701.41;2089767;28;20022;-75
2023/10/24 01:00:43;;;;;;;4.25;2.15;;;;;;;9.90;78.13;100683.69;2099348;28;20863;-75
2023/10/24 01:01:45;;;;;;;4.38;2.30;;;;;;;9.94;78.48;100698.19;2097948;28;20036;-75
2023/10/24 01:02:48;;;;;;;3.75;2.00;;;;;;;9.95;78.12;100699.78;2090191;28;20094;-74
2023/10/24 01:03:50;;;;;;;4.05;1.90;;;;;;;9.90;78.27;100699.81;2098119;28;20033;-75
2023/10/24 01:04:57;;;;;;;6.18;2.20;;;;;;;9.93;78.45;100691.22;2107172;28;20033;-75
2023/10/24 01:06:03;;;;;;;4.20;2.30;;;;;;;9.94;78.50;100695.50;2113992;28;20075;-75
2023/10/24 01:07:05;;;;;;;5.28;2.17;;;;;;;9.92;77.93;100697.66;2106483;28;20033;-75
2023/10/24 01:08:07;;;;;;;3.05;2.05;;;;;;;9.93;78.57;100696.59;2114772;28;20154;-74
2023/10/24 01:09:10;;;;;;;2.50;1.80;;;;;;;9.93;78.30;100698.44;2097681;28;20866;-75
2023/10/24 01:10:12;;;;;;;5.30;2.00;;;;;;;9.91;78.05;100698.72;2098394;28;20501;-75
2023/10/24 01:11:18;;;;;;;4.22;2.15;;;;;;;9.88;78.30;100685.03;2112726;28;20814;-75
2023/10/24 01:12:21;;;;;;;4.57;2.10;;;;;;;9.93;78.68;100695.75;2115940;28;20111;-75
2023/10/24 01:13:23;;;;;;;6.65;2.30;;;;;;;9.91;78.69;100701.41;2099113;28;20068;-75
2023/10/24 01:14:30;;;;;;;5.45;2.30;;;;;;;9.92;78.63;100697.66;2100479;28;20040;-74
2023/10/24 01:15:34;;;;;;;6.18;2.40;;;;;;;9.91;78.61;100701.41;2099176;28;20048;-74
2023/10/24 01:16:43;;;;;;;4.32;2.28;;;;;;;9.91;78.52;100701.41;2091946;28;20135;-74
2023/10/24 01:17:53;;;;;;;4.57;2.30;;;;;;;9.91;78.70;100696.03;2117148;27;20105;-75
2023/10/24 01:18:54;;;;;;;4.53;2.20;;;;;;;9.90;78.46;100699.81;2098020;28;20040;-74
2023/10/24 01:19:57;;;;;;;5.75;1.92;;;;;;;9.85;77.94;100694.44;2074532;28;20889;-75
2023/10/24 01:21:00;;;;;;;3.70;2.45;;;;;;;9.84;78.85;100692.84;2091442;28;20040;-74
2023/10/24 01:22:03;;;;;;;6.05;2.35;;;;;;;9.89;78.58;100695.50;2107432;28;20151;-74
2023/10/24 01:23:07;;;;;;;4.32;2.10;;;;;;;9.89;78.69;100697.38;2090939;28;20037;-74
2023/10/24 01:24:12;;;;;;;4.72;2.20;;;;;;;9.87;78.40;100697.66;2084518;28;20034;-75
2023/10/24 01:25:17;;;;;;;5.28;2.05;;;;;;;9.87;79.00;100694.19;2091972;28;20065;-75
2023/10/24 01:26:19;;;;;;;5.85;2.20;;;;;;;9.83;78.58;100690.41;2073377;28;20030;-74
2023/10/24 01:27:26;;;;;;;4.03;2.08;;;;;;;9.86;78.82;100693.34;2084105;28;20041;-75
2023/10/24 01:28:30;;;;;;;4.28;2.20;;;;;;;9.83;78.86;100698.47;2083580;28;20049;-74
2023/10/24 01:29:32;;;;;;;5.72;2.00;;;;;;;9.85;79.24;100697.13;2074761;28;20152;-75
2023/10/24 01:30:39;;;;;;;5.88;2.40;;;;;;;9.85;78.20;100701.69;2091622;28;20088;-74
2023/10/24 01:31:42;;;;;;;3.97;1.75;;;;;;;9.83;78.62;100693.91;2099302;28;20159;-74
2023/10/24 01:32:44;;;;;;;2.88;1.95;;;;;;;9.82;78.87;100696.88;2099564;28;20047;-74
2023/10/24 01:33:48;;;;;;;5.13;2.10;;;;;;;9.83;nan;100701.16;2107618;28;20033;-74
2023/10/24 01:34:50;;;;;;;5.28;1.90;;;;;;;9.81;78.21;100696.06;2107660;28;20054;-75
2023/10/24 01:35:54;;;;;;;7.45;2.38;;;;;;;9.82;79.10;100697.66;2099141;28;20032;-74
2023/10/24 01:36:56;;;;;;;3.13;1.80;;;;;;;9.79;79.17;100686.66;2099909;28;20080;-74
2023/10/24 01:37:57;;;;;;;5.97;2.10;;;;;;;9.78;78.43;100685.88;2099463;28;20752;-74
2023/10/24 01:38:58;;;;;;;4.03;2.08;;;;;;;9.81;78.99;100692.56;2091054;28;20149;-74
2023/10/24 01:40:01;;;;;;;4.13;2.10;;;;;;;9.80;79.45;100686.38;2090514;28;20946;-74
2023/10/24 01:41:05;;;;;;;4.18;1.88;;;;;;;9.78;79.20;100685.88;2082376;28;20081;-74
2023/10/24 01:42:07;;;;;;;5.53;2.17;;;;;;;9.79;79.11;100692.84;2083185;28;20763;-74
2023/10/24 01:43:11;;;;;;;3.97;1.80;;;;;;;9.79;78.63;100692.84;2075517;28;20837;-73
2023/10/24 01:44:13;;;;;;;4.30;2.10;;;;;;;9.79;79.23;100689.34;2074923;28;20062;-74
2023/10/24 01:45:17;;;;;;;4.28;2.10;;;;;;;9.79;79.18;100692.84;2082909;28;20045;-74
2023/10/24 01:46:19;;;;;;;4.18;1.73;;;;;;;9.74;79.05;100688.28;2091605;28;20119;-74
2023/10/24 01:47:20;;;;;;;4.47;1.90;;;;;;;9.79;79.29;100687.47;2090987;28;20115;-74
2023/10/24 01:48:23;;;;;;;3.10;1.60;;;;;;;9.77;79.13;100684.22;2091076;28;20041;-75
2023/10/24 01:49:24;;;;;;;3.40;1.80;;;;;;;9.79;78.69;100684.78;2090950;28;20152;-74
2023/10/24 01:50:26;;;;;;;3.92;2.10;;;;;;;9.75;79.23;100687.19;2082400;28;20165;-76
2023/10/24 01:51:29;;;;;;;3.03;1.73;;;;;;;9.76;79.42;100682.63;2091335;28;20781;-74
2023/10/24 01:52:31;;;;;;;6.05;2.35;;;;;;;9.76;79.40;100688.00;2090509;28;20132;-75
2023/10/24 01:53:33;;;;;;;3.92;1.65;;;;;;;9.78;78.74;100691.22;2091219;28;20861;-75
2023/10/24 01:54:41;;;;;;;2.40;1.55;;;;;;;9.78;79.74;100690.44;2099207;28;20040;-74
2023/10/24 01:55:43;;;;;;;3.50;1.70;;;;;;;9.78;78.96;100696.59;2108483;28;20040;-75
2023/10/24 01:56:45;;;;;;;3.70;1.55;;;;;;;9.75;79.23;100692.56;2108668;27;20855;-75
2023/10/24 01:57:50;;;;;;;5.10;1.80;;;;;;;9.75;79.31;100691.78;2082858;28;20161;-75
2023/10/24 01:58:51;;;;;;;4.45;1.77;;;;;;;9.75;79.21;100681.03;2074890;28;20038;-75
2023/10/24 01:59:53;;;;;;;4.55;2.03;;;;;;;9.74;79.36;100695.50;2082926;28;20034;-75
2023/10/24 02:00:55;;;;;;;3.58;1.60;;;;;;;9.76;79.12;100696.06;2099274;28;20784;-75
2023/10/24 02:02:01;;;;;;;3.22;1.90;;;;;;;9.74;79.13;100688.28;2090895;28;20156;-75
2023/10/24 02:03:03;;;;;;;4.55;2.10;;;;;;;9.76;79.54;100688.00;2075732;28;20042;-75
2023/10/24 02:04:06;;;;;;;3.03;1.60;;;;;;;9.71;79.29;100685.34;2091336;28;20042;-75
2023/10/24 02:05:12;;;;;;;3.72;1.67;;;;;;;9.74;79.60;100684.78;2098788;28;20036;-75
2023/10/24 02:06:16;;;;;;;3.50;1.90;;;;;;;9.73;79.03;100691.22;2100145;28;20057;-75
2023/10/24 02:07:19;;;;;;;4.95;1.80;;;;;;;9.72;79.28;100686.94;2116221;28;20059;-75
2023/10/24 02:08:28;;;;;;;4.50;1.50;;;;;;;9.70;79.21;100687.19;2098701;28;20064;-75
2023/10/24 02:09:35;;;;;;;4.45;1.63;;;;;;;9.74;78.99;100684.78;2092513;28;20147;-75
2023/10/24 02:10:41;;;;;;;4.05;1.48;;;;;;;9.73;78.95;100689.34;2099807;28;20048;-75
2023/10/24 02:11:49;;;;;;;4.00;1.95;;;;;;;9.71;79.48;100688.03;2091593;28;20151;-75
2023/10/24 02:12:53;;;;;;;4.07;1.50;;;;;;;9.72;79.10;100686.94;2099313;28;20033;-75
2023/10/24 02:13:57;;;;;;;4.93;1.70;;;;;;;9.72;79.35;100681.56;2090514;28;20768;-74
2023/10/24 02:15:06;;;;;;;2.75;1.67;;;;;;;9.73;79.15;100689.34;2083514;28;20042;-74
2023/10/24 02:16:09;;;;;;;5.38;2.13;;;;;;;9.73;78.93;100692.03;2091583;28;20767;-74
2023/10/24 02:17:14;;;;;;;4.55;1.65;;;;;;;9.75;78.79;100697.13;2099534;28;20162;-74
2023/10/24 02:18:18;;;;;;;3.60;1.75;;;;;;;9.72;79.16;100692.31;2093492;28;21207;-74
2023/10/24 02:19:22;;;;;;;3.13;1.60;;;;;;;9.70;78.85;100683.69;2082659;28;20042;-75
2023/10/24 02:20:25;;;;;;;3.25;1.92;;;;;;;9.74;78.68;100687.44;2097769;28;20044;-74
2023/10/24 02:21:28;;;;;;;3.80;1.83;;;;;;;9.74;78.63;100688.28;2099630;28;20037;-75
2023/10/24 02:22:32;;;;;;;2.92;1.70;;;;;;;9.67;78.37;100676.19;2099038;28;20856;-75
2023/10/24 02:23:32;;;;;;;3.65;1.63;;;;;;;9.68;78.57;100675.94;2098682;28;20850;-74
2023/10/24 02:24:34;;;;;;;3.20;1.52;;;;;;;9.75;78.50;100689.09;2090565;28;20034;-74
2023/10/24 02:25:36;;;;;;;3.17;1.58;;;;;;;9.69;78.78;100685.59;2099312;28;20119;-75
2023/10/24 02:26:41;;;;;;;3.63;1.58;;;;;;;9.73;78.49;100683.16;2107129;28;20060;-75
2023/10/24 02:27:42;;;;;;;4.95;1.40;;;;;;;9.71;78.61;100685.34;2099233;28;20084;-75
2023/10/24 02:28:44;;;;;;;3.92;1.70;;;;;;;9.72;78.83;100684.25;2090389;28;20037;-75
2023/10/24 02:29:46;;;;;;;3.45;1.75;;;;;;;9.74;78.29;100684.78;2099071;28;20048;-74
2023/10/24 02:30:48;;;;;;;2.50;1.45;;;;;;;9.73;78.28;100692.03;2098853;28;20154;-75
2023/10/24 02:31:49;;;;;;;3.08;1.60;;;;;;;9.74;78.13;100690.13;2074394;28;20046;-74
2023/10/24 02:33:00;;;;;;;3.35;1.55;;;;;;;9.73;78.15;100688.53;2074400;28;20042;-74
2023/10/24 02:34:02;;;;;;;3.42;1.70;;;;;;;9.73;78.04;100692.03;2093275;28;20040;-75
2023/10/24 02:35:09;;;;;;;2.60;1.45;;;;;;;9.74;78.31;100690.13;2090476;28;21151;-75
2023/10/24 02:36:15;;;;;;;3.28;1.33;;;;;;;9.73;78.58;100693.91;2084091;28;20034;-74
2023/10/24 02:37:17;;;;;;;2.53;1.52;;;;;;;9.74;77.98;100687.44;2074750;28;20076;-74
2023/10/24 02:38:21;;;;;;;2.50;1.45;;;;;;;9.67;78.47;100679.66;2082871;28;20042;-75
2023/10/24 02:39:22;;;;;;;3.55;1.58;;;;;;;9.73;78.53;100693.91;2081948;28;20056;-74
2023/10/24 02:40:24;;;;;;;4.00;1.70;;;;;;;9.71;78.16;100690.72;2074343;28;20057;-74
2023/10/24 02:41:31;;;;;;;2.92;1.70;;;;;;;9.73;78.42;100692.03;2091391;28;20171;-75
2023/10/24 02:42:38;;;;;;;2.85;1.60;;;;;;;9.73;77.88;100688.53;2083925;28;20044;-76
2023/10/24 02:43:39;;;;;;;3.67;1.42;;;;;;;9.69;78.22;100682.09;2075506;28;20112;-75
2023/10/24 02:44:40;;;;;;;4.18;1.88;;;;;;;9.72;77.95;100686.94;2081928;28;20057;-75
2023/10/24 02:45:45;;;;;;;2.88;1.50;;;;;;;9.71;77.88;100693.38;2088256;28;20151;-75
2023/10/24 02:46:48;;;;;;;5.15;1.80;;;;;;;9.70;77.82;100689.88;2090575;28;20041;-74
2023/10/24 02:47:51;;;;;;;2.25;1.40;;;;;;;9.68;78.45;100684.00;2099152;28;20059;-74
2023/10/24 02:48:55;;;;;;;3.45;1.40;;;;;;;9.70;77.50;100683.69;2106845;28;20111;-75
2023/10/24 02:49:59;;;;;;;3.55;1.33;;;;;;;9.69;78.30;100685.59;2104310;28;20051;-75
2023/10/24 02:51:04;;;;;;;2.70;1.40;;;;;;;9.69;78.40;100676.72;2099091;28;20832;-75
2023/10/24 02:52:08;;;;;;;3.45;1.40;;;;;;;9.67;78.12;100684.25;2099294;28;20855;-75
2023/10/24 02:53:11;;;;;;;2.20;1.35;;;;;;;9.70;77.84;100694.44;2097905;28;20040;-75
2023/10/24 02:54:16;;;;;;;2.38;1.55;;;;;;;9.68;77.80;100680.50;2099281;28;21347;-75
2023/10/24 02:55:19;;;;;;;2.33;1.40;;;;;;;9.66;78.03;100680.75;2107835;28;20838;-75
2023/10/24 02:56:23;;;;;;;3.10;1.38;;;;;;;9.67;78.15;100689.59;2098232;28;20112;-75
2023/10/24 02:57:28;;;;;;;3.65;1.20;;;;;;;9.67;77.76;100676.19;2085351;28;20119;-75
2023/10/24 02:58:29;;;;;;;2.58;1.50;;;;;;;9.67;78.22;100677.00;2082732;28;20116;-75
2023/10/24 02:59:33;;;;;;;2.50;1.30;;;;;;;9.70;77.85;100681.03;2082760;28;20041;-75
2023/10/24 03:00:36;;;;;;;2.30;1.40;;;;;;;9.63;78.11;100667.06;2098459;28;20037;-75
2023/10/24 03:01:39;;;;;;;3.22;1.20;;;;;;;9.69;78.40;100682.09;2098481;28;20033;-75
2023/10/24 03:02:41;;;;;;;2.20;1.40;;;;;;;9.69;77.98;100676.72;2090245;28;20777;-75
2023/10/24 03:03:43;;;;;;;2.83;1.67;;;;;;;9.60;78.39;100664.94;2079077;28;20036;-75
2023/10/24 03:04:45;;;;;;;2.70;1.40;;;;;;;9.70;78.22;100678.34;2074201;28;20069;-74
2023/10/24 03:05:49;;;;;;;2.40;1.30;;;;;;;9.70;78.06;100672.97;2082500;28;20038;-74
2023/10/24 03:06:51;;;;;;;2.80;1.20;;;;;;;9.70;77.97;100679.13;2090779;28;20049;-74
2023/10/24 03:07:54;;;;;;;2.15;1.45;;;;;;;9.70;78.32;100681.03;2107290;28;20062;-74
2023/10/24 03:08:58;;;;;;;3.53;1.38;;;;;;;9.69;77.76;100676.72;2105352;28;20035;-74
2023/10/24 03:10:03;;;;;;;3.90;1.40;;;;;;;9.71;77.94;100674.59;2090307;28;20045;-74
2023/10/24 03:11:05;;;;;;;1.50;1.20;;;;;;;9.66;78.04;100670.03;2091223;28;20033;-75
2023/10/24 03:12:09;;;;;;;2.53;1.40;;;;;;;9.71;77.51;100674.59;2098271;28;20064;-75
2023/10/24 03:13:15;;;;;;;4.30;1.58;;;;;;;9.66;77.46;100666.53;2091526;28;21003;-75
2023/10/24 03:14:17;;;;;;;2.92;1.40;;;;;;;9.60;77.44;100657.66;2099572;28;20029;-75
2023/10/24 03:15:21;;;;;;;2.95;1.73;;;;;;;9.69;77.53;100663.31;2090406;28;20198;-75
2023/10/24 03:16:23;;;;;;;2.90;1.60;;;;;;;9.68;77.83;100669.75;2082190;28;20967;-74
2023/10/24 03:17:26;;;;;;;4.20;1.70;;;;;;;9.68;77.53;100667.88;2090501;28;20068;-75
2023/10/24 03:18:27;;;;;;;3.13;1.80;;;;;;;9.66;77.34;100666.53;2099057;28;20031;-76
2023/10/24 03:19:34;;;;;;;5.53;2.15;;;;;;;9.67;77.94;100666.25;2098497;28;20748;-75
2023/10/24 03:20:40;;;;;;;2.58;1.52;;;;;;;9.66;76.97;100661.97;2098708;28;20028;-76
2023/10/24 03:21:42;;;;;;;3.65;2.00;;;;;;;9.65;77.85;100659.56;2090801;28;20164;-75
2023/10/24 03:22:45;;;;;;;4.50;1.88;;;;;;;9.65;77.39;100659.56;2090369;28;21177;-75
2023/10/24 03:23:52;;;;;;;3.83;1.90;;;;;;;9.62;77.38;100654.72;2095563;28;20036;-75
2023/10/24 03:24:53;;;;;;;4.32;1.98;;;;;;;9.63;77.54;100657.13;2090473;28;20073;-75
2023/10/24 03:25:56;;;;;;;3.75;1.80;;;;;;;9.63;77.36;100657.13;2090195;28;20034;-75
2023/10/24 03:26:57;;;;;;;4.20;2.08;;;;;;;9.62;77.69;100654.72;2090494;28;20037;-75
2023/10/24 03:27:59;;;;;;;3.65;1.98;;;;;;;9.59;77.81;100657.97;2091346;28;20030;-75
2023/10/24 03:29:04;;;;;;;3.95;1.80;;;;;;;9.61;77.46;100653.09;2097024;28;20029;-75
2023/10/24 03:30:09;;;;;;;5.20;2.17;;;;;;;9.61;78.09;100661.97;2090504;28;20041;-75
2023/10/24 03:31:11;;;;;;;3.78;1.80;;;;;;;9.57;77.81;100657.41;2090694;28;20979;-75
2023/10/24 03:32:13;;;;;;;4.05;1.70;;;;;;;9.59;77.22;100660.63;2097985;28;20118;-75
2023/10/24 03:33:15;;;;;;;3.90;2.00;;;;;;;9.58;77.55;100664.38;2098769;28;20040;-75
2023/10/24 03:34:19;;;;;;;3.17;1.75;;;;;;;9.56;77.65;100669.22;2106934;28;20197;-75
2023/10/24 03:35:24;;;;;;;2.45;1.67;;;;;;;9.59;77.86;100666.00;2114336;27;20043;-75
2023/10/24 03:36:27;;;;;;;3.03;1.55;;;;;;;9.54;77.61;100669.47;2106027;28;20102;-75
2023/10/24 03:37:32;;;;;;;3.70;1.85;;;;;;;9.56;77.62;100671.91;2098707;28;20214;-75
2023/10/24 03:38:34;;;;;;;2.75;1.80;;;;;;;9.53;77.85;100667.88;2100140;28;20782;-75
2023/10/24 03:39:36;;;;;;;3.17;1.55;;;;;;;9.51;77.88;100667.34;2089943;28;20851;-75
2023/10/24 03:40:40;;;;;;;2.20;1.42;;;;;;;9.52;78.33;100666.28;2081709;28;20825;-75
2023/10/24 03:41:41;;;;;;;1.92;1.30;;;;;;;9.53;78.04;100673.25;2091388;28;20107;-76
2023/10/24 03:42:43;;;;;;;4.28;1.70;;;;;;;9.52;77.87;100667.09;2096939;28;20025;-75
2023/10/24 03:43:51;;;;;;;2.88;1.73;;;;;;;9.52;78.11;100677.81;2082103;28;20081;-75
2023/10/24 03:44:56;;;;;;;3.22;1.67;;;;;;;9.50;77.59;100677.28;2083895;28;20745;-75
2023/10/24 03:46:06;;;;;;;2.75;1.50;;;;;;;9.47;77.70;100664.38;2091251;28;20096;-75
2023/10/24 03:47:15;;;;;;;2.30;1.60;;;;;;;9.48;77.59;100674.03;2084860;28;20854;-75
2023/10/24 03:48:17;;;;;;;2.45;1.88;;;;;;;9.47;78.07;100674.31;2084267;28;20022;-75
2023/10/24 03:49:19;;;;;;;3.35;1.60;;;;;;;9.42;77.20;100663.56;2089730;28;20068;-75
2023/10/24 03:50:20;;;;;;;3.13;1.70;;;;;;;9.47;77.46;100675.13;2089609;28;20076;-75
2023/10/24 03:51:22;;;;;;;2.63;1.88;;;;;;;9.46;78.03;100673.53;2098119;28;20033;-75
2023/10/24 03:52:24;;;;;;;4.65;1.70;;;;;;;9.43;77.63;100667.88;2098497;28;20257;-75
2023/10/24 03:53:28;;;;;;;2.55;1.50;;;;;;;9.44;77.86;100672.97;2098139;28;20047;-75
2023/10/24 03:54:31;;;;;;;2.97;1.52;;;;;;;9.43;77.37;100667.88;2098920;28;20047;-75
2023/10/24 03:55:52;;;;;;;2.60;1.50;;;;;;;9.44;77.50;100666.81;2082248;28;20947;-75
2023/10/24 03:56:53;;;;;;;3.80;1.75;;;;;;;9.46;77.67;100676.19;2084135;28;20144;-75
2023/10/24 03:57:58;;;;;;;3.03;1.60;;;;;;;9.46;77.42;100676.19;2077179;28;20200;-75
2023/10/24 03:59:03;;;;;;;3.90;1.80;;;;;;;9.45;77.40;100671.88;2095116;28;20115;-76
2023/10/24 04:00:09;;;;;;;3.20;1.75;;;;;;;9.47;77.32;100668.94;2114441;27;20024;-75
2023/10/24 04:01:15;;;;;;;5.45;2.08;;;;;;;9.47;77.59;100671.63;2097846;28;20099;-75
2023/10/24 04:02:17;;;;;;;3.28;1.90;;;;;;;9.45;77.88;100666.53;2090058;28;20033;-76
2023/10/24 04:03:19;;;;;;;3.70;1.83;;;;;;;9.46;77.47;100665.47;2098386;28;20148;-75
2023/10/24 04:04:24;;;;;;;4.47;2.08;;;;;;;9.46;77.42;100667.34;2106152;28;20033;-75
2023/10/24 04:05:31;;;;;;;3.35;1.80;;;;;;;9.47;77.27;100664.38;2097772;28;20143;-75
2023/10/24 04:06:36;;;;;;;4.95;2.00;;;;;;;9.46;78.03;100665.47;2090773;28;20848;-75
2023/10/24 04:07:38;;;;;;;3.97;1.70;;;;;;;9.46;77.87;100661.97;2082044;28;20865;-75
2023/10/24 04:08:41;;;;;;;4.28;1.90;;;;;;;9.48;77.63;100665.19;2091252;28;20044;-75
2023/10/24 04:09:48;;;;;;;3.15;1.75;;;;;;;9.45;77.88;100666.53;2090093;28;20029;-75
2023/10/24 04:10:50;;;;;;;3.22;1.70;;;;;;;9.45;77.77;100663.84;2083305;28;20160;-75
2023/10/24 04:11:54;;;;;;;3.03;1.67;;;;;;;9.45;78.01;100663.84;2081829;28;20233;-75
2023/10/24 04:12:57;;;;;;;2.85;1.77;;;;;;;9.48;77.70;100671.34;2086494;28;20021;-75
2023/10/24 04:13:59;;;;;;;4.43;1.77;;;;;;;9.50;78.19;100663.06;2085418;28;20041;-75
2023/10/24 04:15:03;;;;;;;4.10;1.60;;;;;;;9.48;77.67;100659.81;2089893;28;20854;-75
2023/10/24 04:16:08;;;;;;;3.40;1.70;;;;;;;9.48;77.46;100665.19;2100014;28;20079;-75
2023/10/24 04:17:12;;;;;;;3.22;1.75;;;;;;;9.49;77.80;100670.31;2089652;28;20040;-75
2023/10/24 04:18:13;;;;;;;4.00;1.92;;;;;;;9.50;77.79;100671.91;2090907;28;21032;-75
2023/10/24 04:19:15;;;;;;;2.17;1.50;;;;;;;9.47;78.06;100666.28;2097881;28;20044;-75
2023/10/24 04:20:16;;;;;;;2.20;1.40;;;;;;;9.48;78.30;100665.19;2081163;28;20829;-75
2023/10/24 04:21:22;;;;;;;2.38;1.65;;;;;;;9.51;78.24;100670.03;2073849;28;21027;-75
2023/10/24 04:22:25;;;;;;;4.53;1.90;;;;;;;9.47;77.92;100664.38;2082081;28;20057;-75
2023/10/24 04:23:28;;;;;;;3.45;2.05;;;;;;;9.50;77.33;100663.84;2082271;28;20044;-75
2023/10/24 04:24:31;;;;;;;5.47;1.80;;;;;;;9.51;77.76;100667.34;2105104;28;20728;-75
2023/10/24 04:25:33;;;;;;;2.88;1.75;;;;;;;9.45;77.72;100661.16;2097741;28;20045;-75
2023/10/24 04:26:40;;;;;;;2.40;1.73;;;;;;;9.49;78.16;100672.97;2091217;28;20037;-75
2023/10/24 04:27:42;;;;;;;3.92;1.95;;;;;;;9.51;77.57;100681.56;2098733;28;20029;-75
2023/10/24 04:28:44;;;;;;;4.18;1.63;;;;;;;9.49;77.68;100678.34;2087835;28;20033;-74
2023/10/24 04:29:48;;;;;;;3.92;1.90;;;;;;;9.47;77.53;100671.63;2078804;28;20796;-74
2023/10/24 04:30:52;;;;;;;2.30;1.55;;;;;;;9.50;77.51;100685.31;2098460;28;20110;-74
2023/10/24 04:31:53;;;;;;;3.33;1.80;;;;;;;9.49;77.46;100678.34;2097983;28;20051;-74
2023/10/24 04:32:55;;;;;;;4.28;1.60;;;;;;;9.50;78.12;100685.31;2088678;28;20169;-74
2023/10/24 04:33:57;;;;;;;3.22;1.83;;;;;;;9.45;77.63;100677.25;2092185;28;20219;-74
2023/10/24 04:34:58;;;;;;;2.83;1.75;;;;;;;9.49;77.57;100683.72;2089326;28;21268;-74
2023/10/24 04:36:07;;;;;;;3.03;1.70;;;;;;;9.45;77.34;100674.56;2081990;28;20148;-74
2023/10/24 04:37:10;;;;;;;4.47;2.00;;;;;;;9.48;77.89;100678.59;2098686;28;20037;-74
2023/10/24 04:38:11;;;;;;;3.20;1.70;;;;;;;9.48;77.46;100690.13;2107185;28;20349;-74
2023/10/24 04:39:13;;;;;;;2.88;1.80;;;;;;;9.46;77.79;100684.25;2102305;28;20037;-74
2023/10/24 04:40:14;;;;;;;4.25;2.25;;;;;;;9.48;77.25;100687.47;2090246;28;20035;-74
2023/10/24 04:41:17;;;;;;;5.05;2.42;;;;;;;9.47;77.81;100685.06;2089870;28;20079;-74
2023/10/24 04:42:18;;;;;;;5.60;2.90;;;;;;;9.46;77.34;100686.94;2090027;28;20118;-74
2023/10/24 04:43:27;;;;;;;6.25;3.30;;;;;;;9.46;77.42;100691.50;2096533;28;21447;-75
2023/10/24 04:44:31;;;;;;;8.10;3.27;;;;;;;9.44;77.97;100694.44;2104633;28;20071;-73
2023/10/24 04:45:35;;;;;;;7.05;3.53;;;;;;;9.41;77.76;100691.50;2097915;28;20255;-74
2023/10/24 04:46:37;;;;;;;6.93;3.67;;;;;;;9.45;77.61;100703.28;2089526;28;20044;-73
2023/10/24 04:47:39;;;;;;;7.03;3.40;;;;;;;9.40;77.92;100698.75;2081301;28;20124;-74
2023/10/24 04:48:41;;;;;;;7.03;3.20;;;;;;;9.43;77.92;100695.53;2097829;28;20159;-74
2023/10/24 04:49:44;;;;;;;7.00;3.20;;;;;;;9.43;77.85;100695.53;2088843;28;20084;-74
2023/10/24 04:50:45;;;;;;;5.47;3.50;;;;;;;9.36;77.82;100686.09;2073939;28;20053;-74
2023/10/24 04:51:47;;;;;;;6.28;3.05;;;;;;;9.39;77.78;100686.38;2080875;28;20026;-74
2023/10/24 04:52:49;;;;;;;5.85;3.33;;;;;;;9.37;77.80;100688.53;2089562;28;20044;-74
2023/10/24 04:53:53;;;;;;;5.15;2.90;;;;;;;9.38;78.31;100690.13;2089423;28;20876;-74
2023/10/24 04:54:57;;;;;;;6.18;3.30;;;;;;;9.38;78.30;100695.50;2089794;28;20878;-76
2023/10/24 04:56:00;;;;;;;4.70;3.03;;;;;;;9.35;78.29;100688.00;2081556;28;20029;-76
2023/10/24 04:57:01;;;;;;;4.32;2.80;;;;;;;9.34;78.07;100683.69;2098087;28;20056;-75
2023/10/24 04:58:04;;;;;;;6.03;2.75;;;;;;;9.35;77.79;100682.63;2097313;28;20997;-73